createdAt,value
2022-11-16T00:01:41.644Z,11.55
2022-11-16T00:04:09.731Z,11.54
2022-11-16T00:06:36.128Z,11.54
2022-11-16T00:09:22.348Z,11.52
2022-11-16T00:11:51.306Z,11.48
2022-11-16T00:14:19.564Z,11.51
2022-11-16T00:16:46.020Z,11.48
2022-11-16T00:19:13.065Z,11.51
2022-11-16T00:21:39.675Z,11.49
2022-11-16T00:24:06.556Z,11.52
2022-11-16T00:26:32.942Z,11.49
2022-11-16T00:28:59.402Z,11.51
2022-11-16T00:31:25.780Z,11.49
2022-11-16T00:33:52.509Z,11.45
2022-11-16T00:36:20.354Z,11.48
2022-11-16T00:38:46.874Z,11.49
2022-11-16T00:41:13.603Z,11.49
2022-11-16T00:43:40.043Z,11.48
2022-11-16T00:46:06.431Z,11.52
2022-11-16T00:48:33.164Z,11.48
2022-11-16T00:50:59.757Z,11.49
2022-11-16T00:53:26.534Z,11.49
2022-11-16T00:55:52.908Z,11.48
2022-11-16T01:00:36.345Z,11.45
2022-11-16T01:03:03.626Z,11.48
2022-11-16T01:05:30.578Z,11.48
2022-11-16T01:07:57.188Z,11.48
2022-11-16T01:10:25.435Z,11.47
2022-11-16T01:12:52.740Z,11.47
2022-11-16T01:15:21.507Z,11.45
2022-11-16T01:17:48.253Z,11.42
2022-11-16T01:20:19.428Z,11.44
2022-11-16T01:22:46.239Z,11.42
2022-11-16T01:25:14.407Z,11.39
2022-11-16T01:27:41.808Z,11.38
2022-11-16T01:30:11.528Z,11.34
2022-11-16T01:32:38.057Z,11.34
2022-11-16T01:35:05.602Z,11.34
2022-11-16T01:37:32.346Z,11.34
2022-11-16T01:39:59.149Z,11.34
2022-11-16T01:42:31.377Z,11.34
2022-11-16T01:45:01.455Z,11.30
2022-11-16T01:47:28.897Z,11.30
2022-11-16T01:50:01.710Z,11.34
2022-11-16T01:52:32.479Z,11.26
2022-11-16T01:54:59.747Z,11.24
2022-11-16T01:57:33.333Z,11.21
2022-11-16T02:00:02.087Z,11.24
2022-11-16T02:02:28.698Z,11.27
2022-11-16T02:04:57.016Z,11.24
2022-11-16T02:07:26.481Z,11.24
2022-11-16T02:10:25.387Z,11.23
2022-11-16T02:13:18.134Z,11.24
2022-11-16T02:16:03.737Z,11.21
2022-11-16T02:18:42.868Z,11.23
2022-11-16T02:21:27.448Z,11.24
2022-11-16T02:24:05.162Z,11.21
2022-11-16T02:26:55.779Z,11.24
2022-11-16T02:29:36.435Z,11.23
2022-11-16T02:32:12.354Z,11.21
2022-11-16T02:34:54.059Z,11.24
2022-11-16T02:37:24.179Z,11.24
2022-11-16T02:39:56.360Z,11.20
2022-11-16T02:42:35.044Z,11.21
2022-11-16T02:45:03.859Z,11.23
2022-11-16T02:47:34.318Z,11.24
2022-11-16T02:50:14.114Z,11.26
2022-11-16T02:52:40.717Z,11.27
2022-11-16T02:55:07.816Z,11.21
2022-11-16T02:58:01.070Z,11.28
2022-11-16T03:00:43.962Z,11.27
2022-11-16T03:03:31.412Z,11.26
2022-11-16T03:06:16.907Z,11.26
2022-11-16T03:08:49.587Z,11.28
2022-11-16T03:11:34.892Z,11.26
2022-11-16T03:14:09.468Z,11.23
2022-11-16T03:16:43.519Z,11.26
2022-11-16T03:19:14.343Z,11.24
2022-11-16T03:21:48.254Z,11.24
2022-11-16T03:24:15.504Z,11.23
2022-11-16T03:26:50.671Z,11.28
2022-11-16T03:29:49.307Z,11.30
2022-11-16T03:32:27.421Z,11.26
2022-11-16T03:35:02.923Z,11.24
2022-11-16T03:37:31.222Z,11.26
2022-11-16T03:40:01.018Z,11.20
2022-11-16T03:42:28.243Z,11.24
2022-11-16T03:44:55.739Z,11.26
2022-11-16T03:47:22.170Z,11.24
2022-11-16T03:49:48.578Z,11.24
2022-11-16T03:52:17.147Z,11.26
2022-11-16T03:54:43.815Z,11.26
2022-11-16T03:57:15.514Z,11.24
2022-11-16T03:59:43.266Z,11.23
2022-11-16T04:02:10.495Z,11.24
2022-11-16T04:04:55.658Z,11.18
2022-11-16T04:07:40.691Z,11.21
2022-11-16T04:10:26.427Z,11.18
2022-11-16T04:13:11.819Z,11.26
2022-11-16T04:15:56.770Z,11.24
2022-11-16T04:18:42.214Z,11.18
2022-11-16T04:21:40.657Z,11.21
2022-11-16T04:24:16.999Z,11.20
2022-11-16T04:27:06.842Z,11.13
2022-11-16T04:29:34.451Z,11.18
2022-11-16T04:32:19.536Z,11.16
2022-11-16T04:35:04.799Z,11.16
2022-11-16T04:37:49.337Z,11.17
2022-11-16T04:40:16.771Z,11.16
2022-11-16T04:42:43.370Z,11.13
2022-11-16T04:45:28.662Z,11.10
2022-11-16T04:47:55.109Z,11.06
2022-11-16T04:50:21.747Z,11.06
2022-11-16T04:52:48.174Z,11.04
2022-11-16T04:55:14.792Z,11.03
2022-11-16T04:57:41.272Z,11.04
2022-11-16T05:00:08.539Z,11.04
2022-11-16T05:02:36.575Z,10.99
2022-11-16T05:05:02.951Z,10.96
2022-11-16T05:07:29.730Z,10.89
2022-11-16T05:09:56.156Z,10.83
2022-11-16T05:12:25.090Z,10.76
2022-11-16T05:14:51.794Z,10.68
2022-11-16T05:17:19.376Z,10.66
2022-11-16T05:20:04.460Z,10.62
2022-11-16T05:22:31.151Z,10.62
2022-11-16T05:24:57.946Z,10.62
2022-11-16T05:27:25.540Z,10.65
2022-11-16T05:29:52.385Z,10.65
2022-11-16T05:32:20.042Z,10.68
2022-11-16T05:34:46.956Z,10.70
2022-11-16T05:37:13.841Z,10.75
2022-11-16T05:39:40.328Z,10.77
2022-11-16T05:42:06.980Z,10.77
2022-11-16T05:44:33.961Z,10.80
2022-11-16T05:47:00.525Z,10.75
2022-11-16T05:49:27.556Z,10.73
2022-11-16T05:51:54.067Z,10.63
2022-11-16T05:54:22.242Z,10.65
2022-11-16T05:56:49.544Z,10.58
2022-11-16T05:59:17.757Z,10.52
2022-11-16T06:01:44.358Z,10.48
2022-11-16T06:04:11.225Z,10.49
2022-11-16T06:06:37.752Z,10.37
2022-11-16T06:09:05.157Z,10.39
2022-11-16T06:11:35.728Z,10.29
2022-11-16T06:14:02.976Z,10.25
2022-11-16T06:16:29.572Z,10.21
2022-11-16T06:18:56.168Z,10.14
2022-11-16T06:21:22.692Z,10.33
2022-11-16T06:23:49.151Z,10.26
2022-11-16T06:26:15.593Z,10.28
2022-11-16T06:28:42.142Z,10.33
2022-11-16T06:31:08.569Z,10.22
2022-11-16T06:33:35.123Z,10.21
2022-11-16T06:36:01.689Z,10.33
2022-11-16T06:38:28.383Z,10.38
2022-11-16T06:40:57.008Z,10.41
2022-11-16T06:43:24.690Z,10.46
2022-11-16T06:45:53.286Z,10.50
2022-11-16T06:48:20.341Z,10.53
2022-11-16T06:50:51.820Z,10.52
2022-11-16T06:53:19.091Z,10.60
2022-11-16T06:55:45.606Z,10.58
2022-11-16T06:58:12.067Z,10.60
2022-11-16T07:00:38.568Z,10.58
2022-11-16T07:03:04.935Z,10.55
2022-11-16T07:05:32.309Z,10.65
2022-11-16T07:07:59.096Z,10.59
2022-11-16T07:10:25.919Z,10.70
2022-11-16T07:12:52.449Z,10.69
2022-11-16T07:15:19.602Z,10.56
2022-11-16T07:17:46.367Z,10.66
2022-11-16T07:20:12.803Z,10.59
2022-11-16T07:22:39.148Z,10.62
2022-11-16T07:25:06.138Z,10.84
2022-11-16T07:27:32.569Z,10.87
2022-11-16T07:32:36.099Z,11.00
2022-11-16T07:35:02.507Z,10.87
2022-11-16T07:37:28.941Z,10.96
2022-11-16T07:39:55.329Z,11.01
2022-11-16T07:42:21.663Z,10.99
2022-11-16T07:44:48.061Z,11.06
2022-11-16T07:47:14.437Z,11.07
2022-11-16T07:49:40.798Z,11.03
2022-11-16T07:52:10.645Z,11.10
2022-11-16T07:54:37.473Z,11.06
2022-11-16T07:57:04.269Z,11.01
2022-11-16T07:59:30.635Z,11.31
2022-11-16T08:01:57.065Z,11.49
2022-11-16T08:04:23.836Z,11.59
2022-11-16T08:06:51.674Z,11.72
2022-11-16T08:09:18.265Z,11.34
2022-11-16T08:11:44.637Z,11.17
2022-11-16T08:14:11.918Z,11.06
2022-11-16T08:16:38.270Z,11.07
2022-11-16T08:19:04.668Z,11.59
2022-11-16T08:21:31.046Z,11.76
2022-11-16T08:23:58.868Z,11.85
2022-11-16T08:26:25.558Z,12.13
2022-11-16T08:28:53.620Z,12.21
2022-11-16T08:31:23.934Z,12.30
2022-11-16T08:33:51.975Z,12.28
2022-11-16T08:36:19.042Z,12.92
2022-11-16T08:38:46.906Z,12.27
2022-11-16T08:41:14.066Z,12.38
2022-11-16T08:43:40.947Z,12.23
2022-11-16T08:46:09.329Z,12.43
2022-11-16T08:48:37.215Z,12.79
2022-11-16T08:51:17.572Z,12.23
2022-11-16T08:53:45.235Z,12.17
2022-11-16T08:56:13.691Z,11.72
2022-11-16T08:58:43.449Z,11.65
2022-11-16T09:01:14.606Z,11.86
2022-11-16T09:03:41.865Z,12.95
2022-11-16T09:06:09.615Z,13.61
2022-11-16T09:08:37.844Z,13.26
2022-11-16T09:11:09.907Z,12.09
2022-11-16T09:13:37.378Z,11.99
2022-11-16T09:16:04.676Z,11.70
2022-11-16T09:18:31.606Z,11.68
2022-11-16T09:20:58.446Z,11.66
2022-11-16T09:23:25.730Z,11.70
2022-11-16T09:25:52.833Z,11.70
2022-11-16T09:28:19.587Z,12.05
2022-11-16T09:30:48.463Z,12.30
2022-11-16T09:33:14.849Z,12.78
2022-11-16T09:35:41.709Z,12.31
2022-11-16T09:38:09.926Z,12.23
2022-11-16T09:40:39.617Z,12.07
2022-11-16T09:43:13.049Z,11.93
2022-11-16T09:45:52.708Z,12.21
2022-11-16T09:48:21.707Z,12.43
2022-11-16T09:50:58.056Z,13.06
2022-11-16T09:53:30.436Z,13.47
2022-11-16T09:56:04.059Z,13.50
2022-11-16T09:58:49.632Z,13.94
2022-11-16T10:01:23.667Z,14.40
2022-11-16T10:03:58.541Z,14.43
2022-11-16T10:06:37.029Z,14.28
2022-11-16T10:09:03.993Z,14.15
2022-11-16T10:11:39.468Z,14.66
2022-11-16T10:14:15.085Z,16.06
2022-11-16T10:17:20.441Z,15.82
2022-11-16T10:19:49.756Z,14.88
2022-11-16T10:22:33.201Z,14.83
2022-11-16T10:25:07.128Z,14.15
2022-11-16T10:28:22.323Z,14.64
2022-11-16T10:31:01.103Z,14.90
2022-11-16T10:33:35.752Z,15.07
2022-11-16T10:36:11.263Z,15.43
2022-11-16T10:38:38.065Z,15.80
2022-11-16T10:41:18.416Z,15.62
2022-11-16T10:43:45.599Z,15.30
2022-11-16T10:46:28.856Z,16.57
2022-11-16T10:49:32.897Z,16.01
2022-11-16T10:51:59.373Z,14.79
2022-11-16T10:54:25.709Z,14.98
2022-11-16T10:57:02.355Z,15.20
2022-11-16T10:59:50.015Z,14.93
2022-11-16T11:02:32.583Z,15.07
2022-11-16T11:05:16.615Z,15.31
2022-11-16T11:07:54.056Z,16.13
2022-11-16T11:10:35.680Z,15.86
2022-11-16T11:13:08.950Z,14.74
2022-11-16T11:15:35.905Z,15.87
2022-11-16T11:18:27.030Z,16.27
2022-11-16T11:21:07.639Z,15.46
2022-11-16T11:23:51.285Z,15.22
2022-11-16T11:26:35.866Z,14.59
2022-11-16T11:29:17.071Z,14.69
2022-11-16T11:31:48.931Z,14.59
2022-11-16T11:34:20.730Z,14.85
2022-11-16T11:37:00.732Z,15.12
2022-11-16T11:39:33.298Z,15.34
2022-11-16T11:42:14.812Z,15.27
2022-11-16T11:44:50.405Z,15.10
2022-11-16T11:50:38.818Z,14.98
2022-11-16T11:53:18.684Z,14.97
2022-11-16T11:55:45.073Z,15.11
2022-11-16T11:58:19.097Z,15.24
2022-11-16T12:00:50.761Z,15.36
2022-11-16T12:03:38.812Z,15.24
2022-11-16T12:06:11.408Z,15.79
2022-11-16T12:08:50.191Z,15.48
2022-11-16T12:11:35.338Z,15.55
2022-11-16T12:14:14.694Z,15.08
2022-11-16T12:16:53.005Z,15.11
2022-11-16T12:19:38.365Z,15.14
2022-11-16T12:22:43.449Z,15.11
2022-11-16T12:25:34.717Z,15.46
2022-11-16T12:28:12.924Z,15.91
2022-11-16T12:31:10.224Z,15.53
2022-11-16T12:33:58.125Z,16.31
2022-11-16T12:36:40.196Z,15.77
2022-11-16T12:39:26.246Z,14.72
2022-11-16T12:42:23.503Z,14.37
2022-11-16T12:44:59.472Z,14.39
2022-11-16T12:47:47.110Z,14.91
2022-11-16T12:50:35.153Z,15.25
2022-11-16T12:53:13.418Z,15.69
2022-11-16T12:55:48.791Z,15.61
2022-11-16T12:58:38.577Z,15.67
2022-11-16T13:01:16.820Z,15.53
2022-11-16T13:03:53.654Z,15.10
2022-11-16T13:06:33.379Z,14.79
2022-11-16T13:09:40.655Z,15.04
2022-11-16T13:12:14.145Z,15.41
2022-11-16T13:14:49.908Z,15.87
2022-11-16T13:17:21.688Z,15.96
2022-11-16T13:20:07.060Z,15.24
2022-11-16T13:22:40.200Z,14.85
2022-11-16T13:25:19.749Z,14.56
2022-11-16T13:27:58.313Z,14.42
2022-11-16T13:30:32.800Z,14.32
2022-11-16T13:33:01.460Z,14.21
2022-11-16T13:35:28.398Z,14.19
2022-11-16T13:37:54.916Z,14.18
2022-11-16T13:40:27.174Z,14.22
2022-11-16T13:43:06.724Z,14.25
2022-11-16T13:45:36.983Z,14.06
2022-11-16T13:48:15.998Z,14.04
2022-11-16T13:50:49.500Z,14.04
2022-11-16T13:56:17.581Z,14.49
2022-11-16T13:58:52.589Z,14.81
2022-11-16T14:01:19.237Z,14.98
2022-11-16T14:03:51.591Z,14.59
2022-11-16T14:06:23.830Z,14.26
2022-11-16T14:08:54.064Z,14.14
2022-11-16T14:11:34.916Z,13.97
2022-11-16T14:14:10.277Z,13.93
2022-11-16T14:16:47.449Z,13.84
2022-11-16T14:19:54.987Z,13.85
2022-11-16T14:22:45.010Z,13.78
2022-11-16T14:25:52.242Z,13.78
2022-11-16T14:29:03.573Z,13.73
2022-11-16T14:31:45.175Z,13.74
2022-11-16T14:34:17.339Z,13.74
2022-11-16T14:36:46.513Z,13.73
2022-11-16T14:39:29.180Z,13.70
2022-11-16T14:42:00.496Z,13.74
2022-11-16T14:44:31.458Z,13.65
2022-11-16T14:46:58.100Z,13.68
2022-11-16T14:49:27.322Z,13.73
2022-11-16T14:51:57.164Z,13.88
2022-11-16T14:54:30.050Z,13.77
2022-11-16T14:57:07.766Z,13.71
2022-11-16T14:59:34.236Z,13.75
2022-11-16T15:02:11.918Z,13.61
2022-11-16T15:04:38.808Z,13.50
2022-11-16T15:07:05.911Z,13.40
2022-11-16T15:09:40.678Z,13.36
2022-11-16T15:12:34.097Z,13.30
2022-11-16T15:15:29.242Z,13.26
2022-11-16T15:18:06.325Z,13.23
2022-11-16T15:20:36.241Z,13.27
2022-11-16T15:23:05.366Z,13.25
2022-11-16T15:25:43.732Z,13.32
2022-11-16T15:28:22.609Z,13.33
2022-11-16T15:30:52.647Z,13.29
2022-11-16T15:33:29.662Z,13.18
2022-11-16T15:35:56.530Z,13.29
2022-11-16T15:38:29.048Z,13.16
2022-11-16T15:41:03.257Z,13.13
2022-11-16T15:43:33.062Z,13.06
2022-11-16T15:46:01.109Z,12.93
2022-11-16T15:48:28.353Z,12.86
2022-11-16T15:51:02.978Z,12.85
2022-11-16T15:53:40.293Z,12.79
2022-11-16T15:56:26.918Z,12.75
2022-11-16T15:58:55.744Z,12.60
2022-11-16T16:01:23.326Z,12.54
2022-11-16T16:04:00.862Z,12.40
2022-11-16T16:06:45.586Z,12.37
2022-11-16T16:09:34.140Z,12.26
2022-11-16T16:12:20.668Z,12.23
2022-11-16T16:14:49.169Z,12.10
2022-11-16T16:17:26.865Z,12.06
2022-11-16T16:20:03.301Z,12.05
2022-11-16T16:22:33.520Z,11.89
2022-11-16T16:25:01.676Z,11.88
2022-11-16T16:27:30.255Z,11.79
2022-11-16T16:30:02.596Z,11.81
2022-11-16T16:32:31.273Z,11.70
2022-11-16T16:35:00.132Z,11.78
2022-11-16T16:37:29.241Z,11.70
2022-11-16T16:39:56.002Z,11.62
2022-11-16T16:42:22.635Z,11.59
2022-11-16T16:44:50.000Z,11.58
2022-11-16T16:47:20.512Z,11.54
2022-11-16T16:49:47.758Z,11.44
2022-11-16T16:52:14.454Z,11.51
2022-11-16T16:54:41.493Z,11.49
2022-11-16T16:57:13.679Z,11.51
2022-11-16T16:59:40.259Z,11.42
2022-11-16T17:02:06.891Z,11.32
2022-11-16T17:04:34.358Z,11.39
2022-11-16T17:07:00.762Z,11.35
2022-11-16T17:09:27.271Z,11.32
2022-11-16T17:11:53.709Z,11.35
2022-11-16T17:14:24.635Z,11.35
2022-11-16T17:16:51.632Z,11.47
2022-11-16T17:19:18.145Z,11.47
2022-11-16T17:21:44.514Z,11.39
2022-11-16T17:24:11.640Z,11.37
2022-11-16T17:26:38.318Z,11.38
2022-11-16T17:29:04.786Z,11.34
2022-11-16T17:31:31.190Z,11.35
2022-11-16T17:33:59.806Z,11.28
2022-11-16T17:36:26.177Z,11.26
2022-11-16T17:38:53.717Z,11.20
2022-11-16T17:41:24.077Z,11.11
2022-11-16T17:43:53.119Z,11.07
2022-11-16T17:46:21.950Z,11.03
2022-11-16T17:48:48.967Z,10.91
2022-11-16T17:51:17.833Z,10.94
2022-11-16T17:53:45.816Z,10.94
2022-11-16T18:00:00.700Z,10.87
2022-11-16T18:02:30.727Z,10.84
2022-11-16T18:04:57.305Z,10.86
2022-11-16T18:07:23.791Z,10.80
2022-11-16T18:09:50.245Z,10.77
2022-11-16T18:12:18.359Z,10.76
2022-11-16T18:15:06.398Z,10.68
2022-11-16T18:17:31.140Z,10.66
2022-11-16T18:19:57.502Z,10.60
2022-11-16T18:22:24.219Z,10.60
2022-11-16T18:24:51.067Z,10.59
2022-11-16T18:27:20.440Z,10.50
2022-11-16T18:29:48.139Z,10.53
2022-11-16T18:32:14.465Z,10.63
2022-11-16T18:34:40.821Z,10.58
2022-11-16T18:37:07.164Z,10.56
2022-11-16T18:39:33.682Z,10.56
2022-11-16T18:42:00.361Z,10.50
2022-11-16T18:44:26.935Z,10.52
2022-11-16T18:46:53.365Z,10.50
2022-11-16T18:49:19.883Z,10.48
2022-11-16T18:51:46.399Z,10.49
2022-11-16T18:57:36.084Z,10.49
2022-11-16T19:00:03.235Z,10.44
2022-11-16T19:02:29.570Z,10.41
2022-11-16T19:04:56.155Z,10.44
2022-11-16T19:07:22.677Z,10.46
2022-11-16T19:09:49.148Z,10.52
2022-11-16T19:12:17.827Z,10.55
2022-11-16T19:14:44.171Z,10.55
2022-11-16T19:17:10.547Z,10.60
2022-11-16T19:19:36.996Z,10.63
2022-11-16T19:22:06.003Z,10.72
2022-11-16T19:24:32.682Z,10.70
2022-11-16T19:26:59.606Z,10.75
2022-11-16T19:29:26.248Z,10.80
2022-11-16T19:31:52.646Z,10.79
2022-11-16T19:34:19.116Z,10.77
2022-11-16T19:36:45.529Z,10.81
2022-11-16T19:39:12.096Z,10.86
2022-11-16T19:41:38.504Z,10.89
2022-11-16T19:44:04.973Z,10.93
2022-11-16T19:46:33.121Z,10.94
2022-11-16T19:49:00.166Z,10.96
2022-11-16T19:51:32.158Z,11.01
2022-11-16T19:54:00.430Z,11.01
2022-11-16T19:56:27.485Z,10.97
2022-11-16T19:58:54.031Z,10.96
2022-11-16T20:01:28.080Z,11.00
2022-11-16T20:03:56.756Z,10.96
2022-11-16T20:06:29.078Z,10.97
2022-11-16T20:09:01.066Z,11.03
2022-11-16T20:11:29.359Z,11.03
2022-11-16T20:13:57.833Z,10.96
2022-11-16T20:16:27.403Z,11.06
2022-11-16T20:18:54.673Z,11.10
2022-11-16T20:21:33.241Z,11.08
2022-11-16T20:24:06.063Z,11.11
2022-11-16T20:26:36.337Z,11.04
2022-11-16T20:29:03.449Z,11.16
2022-11-16T20:31:32.129Z,11.16
2022-11-16T20:34:04.187Z,11.17
2022-11-16T20:36:32.619Z,11.20
2022-11-16T20:39:00.824Z,11.20
2022-11-16T20:41:32.386Z,11.24
2022-11-16T20:44:00.979Z,11.21
2022-11-16T20:46:30.339Z,11.23
2022-11-16T20:48:59.252Z,11.26
2022-11-16T20:51:25.763Z,11.28
2022-11-16T20:53:52.462Z,11.30
2022-11-16T20:56:20.184Z,11.24
2022-11-16T20:58:48.294Z,11.21
2022-11-16T21:01:18.572Z,11.24
2022-11-16T21:03:45.326Z,11.20
2022-11-16T21:06:13.183Z,11.18
2022-11-16T21:08:41.053Z,11.16
2022-11-16T21:11:23.193Z,11.17
2022-11-16T21:14:08.374Z,11.16
2022-11-16T21:16:35.171Z,11.16
2022-11-16T21:19:02.892Z,11.16
2022-11-16T21:21:29.960Z,11.10
2022-11-16T21:23:56.394Z,11.07
2022-11-16T21:26:30.688Z,11.08
2022-11-16T21:28:59.607Z,11.10
2022-11-16T21:31:32.015Z,11.21
2022-11-16T21:34:02.009Z,11.20
2022-11-16T21:36:31.628Z,11.21
2022-11-16T21:38:58.442Z,11.21
2022-11-16T21:41:25.997Z,11.23
2022-11-16T21:43:52.642Z,11.23
2022-11-16T21:46:23.223Z,11.23
2022-11-16T21:48:51.101Z,11.23
2022-11-16T21:51:20.857Z,11.21
2022-11-16T21:53:48.053Z,11.24
2022-11-16T21:56:19.414Z,11.20
2022-11-16T21:58:50.336Z,11.27
2022-11-16T22:01:17.042Z,11.20
2022-11-16T22:03:44.616Z,11.26
2022-11-16T22:06:34.036Z,11.24
2022-11-16T22:09:01.184Z,11.16
2022-11-16T22:11:28.001Z,11.14
2022-11-16T22:13:54.381Z,11.04
2022-11-16T22:16:23.220Z,11.01
2022-11-16T22:18:50.154Z,10.97
2022-11-16T22:21:18.316Z,10.90
2022-11-16T22:23:44.814Z,10.89
2022-11-16T22:26:12.809Z,10.86
2022-11-16T22:28:39.552Z,10.83
2022-11-16T22:31:14.557Z,10.77
2022-11-16T22:33:41.690Z,10.76
2022-11-16T22:36:10.361Z,10.73
2022-11-16T22:38:37.015Z,10.76
2022-11-16T22:41:03.560Z,10.77
2022-11-16T22:43:31.285Z,10.72
2022-11-16T22:45:59.018Z,10.69
2022-11-16T22:48:39.530Z,10.62
2022-11-16T22:51:11.973Z,10.63
2022-11-16T22:53:38.682Z,10.56
2022-11-16T22:56:07.475Z,10.56
2022-11-16T22:58:34.906Z,10.50
2022-11-16T23:01:04.402Z,10.52
2022-11-16T23:03:31.827Z,10.52
2022-11-16T23:05:58.503Z,10.52
2022-11-16T23:08:25.128Z,10.48
2022-11-16T23:11:21.409Z,10.50
2022-11-16T23:14:06.954Z,10.46
2022-11-16T23:16:33.595Z,10.39
2022-11-16T23:19:00.415Z,10.50
2022-11-16T23:21:45.630Z,10.49
2022-11-16T23:24:33.167Z,10.42
2022-11-16T23:27:21.847Z,10.48
2022-11-16T23:29:49.652Z,10.45
2022-11-16T23:32:18.253Z,10.49
2022-11-16T23:34:45.584Z,10.52
2022-11-16T23:37:12.196Z,10.49
2022-11-16T23:39:38.555Z,10.50
2022-11-16T23:42:23.579Z,10.50
2022-11-16T23:44:50.114Z,10.55
2022-11-16T23:47:16.730Z,10.50
2022-11-16T23:49:43.188Z,10.50
2022-11-16T23:52:09.963Z,10.52
2022-11-16T23:54:36.353Z,10.49
2022-11-16T23:57:03.246Z,10.49
2022-11-16T23:59:29.614Z,10.56
